sensor_id;sensor_type;location;lat;lon;timestamp;pressure;altitude;pressure_sealevel;temperature;humidity
64616;BME280;51027;42.162;24.754;2022-10-16T00:01:23;100462.78;;;11.11;80.48
64616;BME280;51027;42.162;24.754;2022-10-16T00:03:50;100455.72;;;11.12;80.29
64616;BME280;51027;42.162;24.754;2022-10-16T00:06:18;100465.25;;;11.17;80.35
64616;BME280;51027;42.162;24.754;2022-10-16T00:08:44;100468.00;;;11.13;80.49
64616;BME280;51027;42.162;24.754;2022-10-16T00:11:18;100460.34;;;11.05;80.28
64616;BME280;51027;42.162;24.754;2022-10-16T00:13:47;100468.28;;;11.04;80.33
64616;BME280;51027;42.162;24.754;2022-10-16T00:16:14;100463.59;;;10.84;81.14
64616;BME280;51027;42.162;24.754;2022-10-16T00:18:40;100477.06;;;10.73;81.89
64616;BME280;51027;42.162;24.754;2022-10-16T00:21:16;100470.94;;;10.71;81.75
64616;BME280;51027;42.162;24.754;2022-10-16T00:23:42;100466.63;;;10.68;82.02
64616;BME280;51027;42.162;24.754;2022-10-16T00:26:11;100470.16;;;10.67;81.91
64616;BME280;51027;42.162;24.754;2022-10-16T00:28:37;100461.50;;;10.62;81.94
64616;BME280;51027;42.162;24.754;2022-10-16T00:31:09;100468.53;;;10.63;82.35
64616;BME280;51027;42.162;24.754;2022-10-16T00:33:35;100455.72;;;10.50;82.69
64616;BME280;51027;42.162;24.754;2022-10-16T00:36:02;100461.75;;;10.55;82.81
64616;BME280;51027;42.162;24.754;2022-10-16T00:38:28;100466.97;;;10.56;82.99
64616;BME280;51027;42.162;24.754;2022-10-16T00:40:53;100422.22;;;10.21;83.32
64616;BME280;51027;42.162;24.754;2022-10-16T00:46:09;100483.63;;;10.57;83.53
64616;BME280;51027;42.162;24.754;2022-10-16T00:48:36;100485.50;;;10.52;83.33
64616;BME280;51027;42.162;24.754;2022-10-16T00:51:01;100460.31;;;10.42;83.44
64616;BME280;51027;42.162;24.754;2022-10-16T00:53:27;100473.47;;;10.43;83.42
64616;BME280;51027;42.162;24.754;2022-10-16T00:55:53;100483.78;;;10.51;83.38
64616;BME280;51027;42.162;24.754;2022-10-16T00:58:19;100477.81;;;10.44;83.27
64616;BME280;51027;42.162;24.754;2022-10-16T01:00:45;100441.75;;;10.12;84.08
64616;BME280;51027;42.162;24.754;2022-10-16T01:03:29;100501.56;;;10.43;84.28
64616;BME280;51027;42.162;24.754;2022-10-16T01:06:23;100507.69;;;10.43;84.21
64616;BME280;51027;42.162;24.754;2022-10-16T01:09:19;100504.44;;;10.33;84.00
64616;BME280;51027;42.162;24.754;2022-10-16T01:11:52;100522.66;;;10.41;84.38
64616;BME280;51027;42.162;24.754;2022-10-16T01:14:32;100503.72;;;10.27;84.23
64616;BME280;51027;42.162;24.754;2022-10-16T01:17:15;100518.28;;;10.40;84.09
64616;BME280;51027;42.162;24.754;2022-10-16T01:20:29;100524.59;;;10.34;84.66
64616;BME280;51027;42.162;24.754;2022-10-16T01:23:12;100517.59;;;10.33;84.37
64616;BME280;51027;42.162;24.754;2022-10-16T01:28:15;100519.03;;;10.08;86.02
64616;BME280;51027;42.162;24.754;2022-10-16T01:30:43;100527.03;;;10.05;85.74
64616;BME280;51027;42.162;24.754;2022-10-16T01:33:16;100528.94;;;9.98;85.66
64616;BME280;51027;42.162;24.754;2022-10-16T01:35:52;100527.97;;;10.02;85.70
64616;BME280;51027;42.162;24.754;2022-10-16T01:38:34;100498.69;;;9.79;85.47
64616;BME280;51027;42.162;24.754;2022-10-16T01:41:22;100533.56;;;9.87;85.67
64616;BME280;51027;42.162;24.754;2022-10-16T01:43:58;100513.59;;;9.78;85.70
64616;BME280;51027;42.162;24.754;2022-10-16T01:46:27;100533.38;;;9.96;84.99
64616;BME280;51027;42.162;24.754;2022-10-16T01:48:55;100525.59;;;9.92;85.21
64616;BME280;51027;42.162;24.754;2022-10-16T01:51:23;100507.44;;;9.81;85.46
64616;BME280;51027;42.162;24.754;2022-10-16T01:53:54;100552.56;;;10.01;85.09
64616;BME280;51027;42.162;24.754;2022-10-16T01:56:21;100530.91;;;9.89;85.07
64616;BME280;51027;42.162;24.754;2022-10-16T01:58:57;100543.09;;;9.93;85.49
64616;BME280;51027;42.162;24.754;2022-10-16T02:01:26;100539.56;;;9.94;85.13
64616;BME280;51027;42.162;24.754;2022-10-16T02:03:56;100526.69;;;9.81;85.63
64616;BME280;51027;42.162;24.754;2022-10-16T02:06:22;100538.63;;;9.96;85.41
64616;BME280;51027;42.162;24.754;2022-10-16T02:08:48;100548.16;;;10.00;85.21
64616;BME280;51027;42.162;24.754;2022-10-16T02:11:14;100543.19;;;9.88;85.96
64616;BME280;51027;42.162;24.754;2022-10-16T02:13:46;100511.88;;;9.77;85.93
64616;BME280;51027;42.162;24.754;2022-10-16T02:16:13;100543.03;;;9.96;85.78
64616;BME280;51027;42.162;24.754;2022-10-16T02:18:40;100530.19;;;9.82;86.52
64616;BME280;51027;42.162;24.754;2022-10-16T02:24:04;100550.25;;;9.86;86.39
64616;BME280;51027;42.162;24.754;2022-10-16T02:26:57;100556.44;;;9.85;86.52
64616;BME280;51027;42.162;24.754;2022-10-16T02:29:26;100540.19;;;9.66;86.90
64616;BME280;51027;42.162;24.754;2022-10-16T02:31:58;100549.72;;;9.70;87.22
64616;BME280;51027;42.162;24.754;2022-10-16T02:34:27;100543.59;;;9.70;87.26
64616;BME280;51027;42.162;24.754;2022-10-16T02:36:55;100555.06;;;9.67;87.02
64616;BME280;51027;42.162;24.754;2022-10-16T02:39:21;100550.81;;;9.60;87.17
64616;BME280;51027;42.162;24.754;2022-10-16T02:41:47;100558.84;;;9.54;87.64
64616;BME280;51027;42.162;24.754;2022-10-16T02:44:12;100563.09;;;9.61;87.35
64616;BME280;51027;42.162;24.754;2022-10-16T02:46:38;100563.16;;;9.58;87.56
64616;BME280;51027;42.162;24.754;2022-10-16T02:49:04;100553.63;;;9.52;87.64
64616;BME280;51027;42.162;24.754;2022-10-16T02:51:29;100546.72;;;9.47;87.48
64616;BME280;51027;42.162;24.754;2022-10-16T02:53:54;100571.25;;;9.47;87.97
64616;BME280;51027;42.162;24.754;2022-10-16T02:56:20;100556.41;;;9.45;88.16
64616;BME280;51027;42.162;24.754;2022-10-16T02:58:45;100573.78;;;9.53;88.51
64616;BME280;51027;42.162;24.754;2022-10-16T03:01:11;100581.59;;;9.57;87.95
64616;BME280;51027;42.162;24.754;2022-10-16T03:03:38;100578.81;;;9.64;87.38
64616;BME280;51027;42.162;24.754;2022-10-16T03:06:04;100582.38;;;9.62;87.75
64616;BME280;51027;42.162;24.754;2022-10-16T03:08:31;100562.66;;;9.39;87.98
64616;BME280;51027;42.162;24.754;2022-10-16T03:10:56;100568.06;;;9.33;89.06
64616;BME280;51027;42.162;24.754;2022-10-16T03:13:22;100551.41;;;9.33;88.63
64616;BME280;51027;42.162;24.754;2022-10-16T03:15:47;100585.22;;;9.51;88.42
64616;BME280;51027;42.162;24.754;2022-10-16T03:18:13;100589.63;;;9.49;88.12
64616;BME280;51027;42.162;24.754;2022-10-16T03:20:38;100595.81;;;9.46;88.32
64616;BME280;51027;42.162;24.754;2022-10-16T03:23:04;100589.63;;;9.50;87.99
64616;BME280;51027;42.162;24.754;2022-10-16T03:25:29;100598.50;;;9.45;88.04
64616;BME280;51027;42.162;24.754;2022-10-16T03:27:54;100597.59;;;9.46;87.95
64616;BME280;51027;42.162;24.754;2022-10-16T03:30:20;100600.31;;;9.41;87.96
64616;BME280;51027;42.162;24.754;2022-10-16T03:32:46;100604.00;;;9.33;88.35
64616;BME280;51027;42.162;24.754;2022-10-16T03:35:11;100601.38;;;9.33;88.54
64616;BME280;51027;42.162;24.754;2022-10-16T03:37:37;100585.63;;;9.31;88.62
64616;BME280;51027;42.162;24.754;2022-10-16T03:40:03;100601.59;;;9.19;89.13
64616;BME280;51027;42.162;24.754;2022-10-16T03:42:30;100600.81;;;9.15;88.92
64616;BME280;51027;42.162;24.754;2022-10-16T03:44:55;100605.34;;;9.07;89.46
64616;BME280;51027;42.162;24.754;2022-10-16T03:47:21;100610.41;;;9.18;89.13
64616;BME280;51027;42.162;24.754;2022-10-16T03:49:49;100611.16;;;9.24;88.64
64616;BME280;51027;42.162;24.754;2022-10-16T03:52:14;100609.44;;;9.23;88.64
64616;BME280;51027;42.162;24.754;2022-10-16T03:54:40;100612.19;;;9.16;89.00
64616;BME280;51027;42.162;24.754;2022-10-16T03:57:05;100615.72;;;9.15;89.68
64616;BME280;51027;42.162;24.754;2022-10-16T03:59:31;100618.38;;;9.13;89.75
64616;BME280;51027;42.162;24.754;2022-10-16T04:01:56;100596.75;;;8.98;89.82
64616;BME280;51027;42.162;24.754;2022-10-16T04:04:22;100623.75;;;9.06;89.88
64616;BME280;51027;42.162;24.754;2022-10-16T04:06:47;100614.09;;;9.09;89.72
64616;BME280;51027;42.162;24.754;2022-10-16T04:09:13;100624.03;;;8.92;90.59
64616;BME280;51027;42.162;24.754;2022-10-16T04:11:38;100601.91;;;9.04;90.43
64616;BME280;51027;42.162;24.754;2022-10-16T04:14:04;100609.91;;;8.96;91.04
64616;BME280;51027;42.162;24.754;2022-10-16T04:16:29;100620.44;;;8.96;91.30
64616;BME280;51027;42.162;24.754;2022-10-16T04:18:55;100614.44;;;8.89;92.20
64616;BME280;51027;42.162;24.754;2022-10-16T04:21:20;100620.59;;;8.87;92.34
64616;BME280;51027;42.162;24.754;2022-10-16T04:23:45;100621.41;;;8.92;91.73
64616;BME280;51027;42.162;24.754;2022-10-16T04:26:11;100618.81;;;8.87;91.29
64616;BME280;51027;42.162;24.754;2022-10-16T04:28:37;100607.69;;;8.75;91.35
64616;BME280;51027;42.162;24.754;2022-10-16T04:31:06;100622.53;;;8.76;91.52
64616;BME280;51027;42.162;24.754;2022-10-16T04:33:32;100620.75;;;8.78;91.64
64616;BME280;51027;42.162;24.754;2022-10-16T04:36:02;100624.25;;;8.80;91.33
64616;BME280;51027;42.162;24.754;2022-10-16T04:38:27;100609.69;;;8.60;91.76
64616;BME280;51027;42.162;24.754;2022-10-16T04:40:53;100626.19;;;8.69;92.41
64616;BME280;51027;42.162;24.754;2022-10-16T04:43:19;100625.25;;;8.71;92.13
64616;BME280;51027;42.162;24.754;2022-10-16T04:45:44;100590.59;;;8.48;91.86
64616;BME280;51027;42.162;24.754;2022-10-16T04:48:10;100629.69;;;8.69;92.36
64616;BME280;51027;42.162;24.754;2022-10-16T04:50:35;100627.88;;;8.71;91.75
64616;BME280;51027;42.162;24.754;2022-10-16T04:53:01;100625.38;;;8.63;92.12
64616;BME280;51027;42.162;24.754;2022-10-16T04:55:26;100618.44;;;8.58;91.98
64616;BME280;51027;42.162;24.754;2022-10-16T04:57:52;100638.41;;;8.70;91.62
64616;BME280;51027;42.162;24.754;2022-10-16T05:00:17;100641.13;;;8.63;91.77
64616;BME280;51027;42.162;24.754;2022-10-16T05:02:42;100634.16;;;8.62;91.50
64616;BME280;51027;42.162;24.754;2022-10-16T05:05:08;100644.47;;;8.73;90.77
64616;BME280;51027;42.162;24.754;2022-10-16T05:07:34;100609.94;;;8.44;90.65
64616;BME280;51027;42.162;24.754;2022-10-16T05:09:59;100649.78;;;8.70;90.81
64616;BME280;51027;42.162;24.754;2022-10-16T05:12:24;100651.50;;;8.73;90.29
64616;BME280;51027;42.162;24.754;2022-10-16T05:14:50;100656.66;;;8.79;89.43
64616;BME280;51027;42.162;24.754;2022-10-16T05:17:15;100660.16;;;8.78;89.50
64616;BME280;51027;42.162;24.754;2022-10-16T05:19:41;100658.44;;;8.75;89.21
64616;BME280;51027;42.162;24.754;2022-10-16T05:22:06;100656.53;;;8.85;88.68
64616;BME280;51027;42.162;24.754;2022-10-16T05:24:31;100659.00;;;8.94;88.31
64616;BME280;51027;42.162;24.754;2022-10-16T05:26:57;100666.78;;;9.02;88.06
64616;BME280;51027;42.162;24.754;2022-10-16T05:29:22;100673.56;;;9.13;87.54
64616;BME280;51027;42.162;24.754;2022-10-16T05:31:52;100677.88;;;9.17;87.42
64616;BME280;51027;42.162;24.754;2022-10-16T05:34:19;100677.75;;;9.23;87.23
64616;BME280;51027;42.162;24.754;2022-10-16T05:36:44;100683.22;;;9.13;86.92
64616;BME280;51027;42.162;24.754;2022-10-16T05:39:10;100691.69;;;9.29;87.02
64616;BME280;51027;42.162;24.754;2022-10-16T05:41:36;100691.03;;;9.16;86.59
64616;BME280;51027;42.162;24.754;2022-10-16T05:44:05;100681.31;;;9.21;86.29
64616;BME280;51027;42.162;24.754;2022-10-16T05:46:31;100694.09;;;9.39;85.73
64616;BME280;51027;42.162;24.754;2022-10-16T05:48:57;100700.69;;;9.15;85.57
64616;BME280;51027;42.162;24.754;2022-10-16T05:51:23;100706.53;;;9.33;85.89
64616;BME280;51027;42.162;24.754;2022-10-16T05:53:48;100696.38;;;9.61;84.52
64616;BME280;51027;42.162;24.754;2022-10-16T05:56:14;100706.81;;;10.07;82.58
64616;BME280;51027;42.162;24.754;2022-10-16T05:58:39;100686.56;;;9.67;82.91
64616;BME280;51027;42.162;24.754;2022-10-16T06:01:13;100712.63;;;9.81;83.37
64616;BME280;51027;42.162;24.754;2022-10-16T06:03:39;100705.59;;;9.81;83.68
64616;BME280;51027;42.162;24.754;2022-10-16T06:06:10;100681.00;;;9.84;82.91
64616;BME280;51027;42.162;24.754;2022-10-16T06:08:36;100715.16;;;10.29;82.07
64616;BME280;51027;42.162;24.754;2022-10-16T06:11:06;100726.53;;;11.41;77.44
64616;BME280;51027;42.162;24.754;2022-10-16T06:13:32;100722.13;;;11.41;76.93
64616;BME280;51027;42.162;24.754;2022-10-16T06:15:59;100718.38;;;10.80;79.05
64616;BME280;51027;42.162;24.754;2022-10-16T06:18:26;100729.16;;;9.88;82.99
64616;BME280;51027;42.162;24.754;2022-10-16T06:20:52;100726.94;;;10.51;81.12
64616;BME280;51027;42.162;24.754;2022-10-16T06:23:17;100720.28;;;11.11;78.62
64616;BME280;51027;42.162;24.754;2022-10-16T06:25:43;100722.28;;;10.64;79.59
64616;BME280;51027;42.162;24.754;2022-10-16T06:28:08;100709.06;;;10.27;82.57
64616;BME280;51027;42.162;24.754;2022-10-16T06:30:33;100733.06;;;11.28;79.01
64616;BME280;51027;42.162;24.754;2022-10-16T06:32:59;100708.38;;;12.26;74.75
64616;BME280;51027;42.162;24.754;2022-10-16T06:35:24;100737.09;;;14.67;65.65
64616;BME280;51027;42.162;24.754;2022-10-16T06:37:50;100731.69;;;14.47;65.63
64616;BME280;51027;42.162;24.754;2022-10-16T06:40:15;100735.34;;;14.20;65.74
64616;BME280;51027;42.162;24.754;2022-10-16T06:42:41;100745.22;;;14.39;65.43
64616;BME280;51027;42.162;24.754;2022-10-16T06:45:07;100745.97;;;13.20;70.16
64616;BME280;51027;42.162;24.754;2022-10-16T06:47:32;100744.38;;;13.41;69.13
64616;BME280;51027;42.162;24.754;2022-10-16T06:49:58;100743.66;;;12.81;72.06
64616;BME280;51027;42.162;24.754;2022-10-16T06:52:23;100733.31;;;16.77;59.25
64616;BME280;51027;42.162;24.754;2022-10-16T06:54:49;100761.84;;;15.76;61.04
64616;BME280;51027;42.162;24.754;2022-10-16T06:57:15;100761.47;;;12.75;71.81
64616;BME280;51027;42.162;24.754;2022-10-16T06:59:40;100758.84;;;12.47;74.06
64616;BME280;51027;42.162;24.754;2022-10-16T07:02:06;100766.78;;;12.45;74.83
64616;BME280;51027;42.162;24.754;2022-10-16T07:04:33;100748.56;;;12.36;74.97
64616;BME280;51027;42.162;24.754;2022-10-16T07:07:00;100736.72;;;12.20;75.06
64616;BME280;51027;42.162;24.754;2022-10-16T07:09:29;100748.38;;;13.00;72.89
64616;BME280;51027;42.162;24.754;2022-10-16T07:11:54;100759.09;;;12.67;74.83
64616;BME280;51027;42.162;24.754;2022-10-16T07:14:20;100766.06;;;12.40;75.80
64616;BME280;51027;42.162;24.754;2022-10-16T07:16:47;100763.94;;;13.87;71.24
64616;BME280;51027;42.162;24.754;2022-10-16T07:19:13;100767.28;;;14.17;69.90
64616;BME280;51027;42.162;24.754;2022-10-16T07:21:41;100777.44;;;13.80;71.16
64616;BME280;51027;42.162;24.754;2022-10-16T07:24:11;100770.50;;;13.76;70.73
64616;BME280;51027;42.162;24.754;2022-10-16T07:26:38;100768.81;;;13.74;69.46
64616;BME280;51027;42.162;24.754;2022-10-16T07:29:11;100755.38;;;14.97;66.60
64616;BME280;51027;42.162;24.754;2022-10-16T07:31:39;100760.53;;;16.82;58.84
64616;BME280;51027;42.162;24.754;2022-10-16T07:34:06;100773.19;;;15.57;62.66
64616;BME280;51027;42.162;24.754;2022-10-16T07:36:31;100758.41;;;18.93;53.97
64616;BME280;51027;42.162;24.754;2022-10-16T07:38:57;100745.84;;;18.95;52.20
64616;BME280;51027;42.162;24.754;2022-10-16T07:41:23;100751.06;;;20.59;48.77
64616;BME280;51027;42.162;24.754;2022-10-16T07:43:51;100762.16;;;19.66;50.57
64616;BME280;51027;42.162;24.754;2022-10-16T07:46:18;100764.00;;;19.04;51.91
64616;BME280;51027;42.162;24.754;2022-10-16T07:48:44;100761.28;;;18.41;53.56
64616;BME280;51027;42.162;24.754;2022-10-16T07:51:13;100750.78;;;19.33;50.42
64616;BME280;51027;42.162;24.754;2022-10-16T07:53:39;100764.34;;;15.99;61.05
64616;BME280;51027;42.162;24.754;2022-10-16T07:56:06;100760.38;;;15.47;63.34
64616;BME280;51027;42.162;24.754;2022-10-16T07:58:33;100766.25;;;15.55;62.76
64616;BME280;51027;42.162;24.754;2022-10-16T08:01:02;100753.41;;;17.89;56.57
64616;BME280;51027;42.162;24.754;2022-10-16T08:03:27;100753.78;;;18.32;54.79
64616;BME280;51027;42.162;24.754;2022-10-16T08:05:53;100764.75;;;17.75;55.58
64616;BME280;51027;42.162;24.754;2022-10-16T08:08:19;100763.91;;;17.75;56.46
64616;BME280;51027;42.162;24.754;2022-10-16T08:10:44;100726.69;;;20.91;47.54
64616;BME280;51027;42.162;24.754;2022-10-16T08:13:10;100744.09;;;20.42;47.66
64616;BME280;51027;42.162;24.754;2022-10-16T08:15:36;100761.81;;;18.14;52.78
64616;BME280;51027;42.162;24.754;2022-10-16T08:18:03;100762.94;;;16.88;57.15
64616;BME280;51027;42.162;24.754;2022-10-16T08:20:30;100756.16;;;18.21;54.81
64616;BME280;51027;42.162;24.754;2022-10-16T08:22:56;100751.63;;;21.85;45.59
64616;BME280;51027;42.162;24.754;2022-10-16T08:25:22;100746.84;;;23.73;40.77
64616;BME280;51027;42.162;24.754;2022-10-16T08:27:48;100751.38;;;22.64;41.60
64616;BME280;51027;42.162;24.754;2022-10-16T08:30:14;100748.91;;;18.40;51.44
64616;BME280;51027;42.162;24.754;2022-10-16T08:32:40;100754.97;;;20.25;48.31
64616;BME280;51027;42.162;24.754;2022-10-16T08:35:10;100758.69;;;20.08;48.16
64616;BME280;51027;42.162;24.754;2022-10-16T08:37:35;100759.16;;;18.79;51.53
64616;BME280;51027;42.162;24.754;2022-10-16T08:40:02;100758.88;;;17.69;53.22
64616;BME280;51027;42.162;24.754;2022-10-16T08:43:05;100756.13;;;16.99;56.55
64616;BME280;51027;42.162;24.754;2022-10-16T08:48:43;100751.88;;;18.34;52.06
64616;BME280;51027;42.162;24.754;2022-10-16T08:51:14;100745.44;;;20.35;47.51
64616;BME280;51027;42.162;24.754;2022-10-16T08:53:49;100748.75;;;18.10;51.03
64616;BME280;51027;42.162;24.754;2022-10-16T08:56:17;100751.63;;;18.72;49.85
64616;BME280;51027;42.162;24.754;2022-10-16T08:58:43;100715.63;;;20.13;46.57
64616;BME280;51027;42.162;24.754;2022-10-16T09:01:16;100744.22;;;20.82;46.32
64616;BME280;51027;42.162;24.754;2022-10-16T09:10:03;100747.34;;;21.95;43.32
64616;BME280;51027;42.162;24.754;2022-10-16T09:12:46;100751.88;;;22.82;40.39
64616;BME280;51027;42.162;24.754;2022-10-16T09:23:39;100747.13;;;21.98;41.78
64616;BME280;51027;42.162;24.754;2022-10-16T09:26:05;100703.13;;;25.36;34.95
64616;BME280;51027;42.162;24.754;2022-10-16T09:28:34;100743.56;;;25.36;34.68
64616;BME280;51027;42.162;24.754;2022-10-16T09:31:00;100708.63;;;24.91;34.45
64616;BME280;51027;42.162;24.754;2022-10-16T09:33:36;100745.69;;;21.54;40.22
64616;BME280;51027;42.162;24.754;2022-10-16T09:36:04;100745.00;;;19.24;44.84
64616;BME280;51027;42.162;24.754;2022-10-16T09:38:35;100746.41;;;19.16;45.54
64616;BME280;51027;42.162;24.754;2022-10-16T09:41:21;100737.09;;;19.83;44.33
64616;BME280;51027;42.162;24.754;2022-10-16T09:43:54;100729.06;;;19.83;44.50
64616;BME280;51027;42.162;24.754;2022-10-16T09:46:33;100722.97;;;20.52;43.28
64616;BME280;51027;42.162;24.754;2022-10-16T09:49:01;100733.31;;;19.57;43.94
64616;BME280;51027;42.162;24.754;2022-10-16T09:51:32;100715.66;;;19.39;44.55
64616;BME280;51027;42.162;24.754;2022-10-16T09:54:02;100727.06;;;19.42;44.16
64616;BME280;51027;42.162;24.754;2022-10-16T09:56:32;100714.47;;;19.74;43.91
64616;BME280;51027;42.162;24.754;2022-10-16T09:59:01;100715.00;;;19.65;43.28
64616;BME280;51027;42.162;24.754;2022-10-16T10:01:37;100714.22;;;19.33;43.78
64616;BME280;51027;42.162;24.754;2022-10-16T10:04:04;100712.34;;;19.19;43.49
64616;BME280;51027;42.162;24.754;2022-10-16T10:06:36;100693.09;;;19.44;42.42
64616;BME280;51027;42.162;24.754;2022-10-16T10:16:47;100696.34;;;19.19;43.12
64616;BME280;51027;42.162;24.754;2022-10-16T10:19:52;100697.88;;;18.78;42.38
64616;BME280;51027;42.162;24.754;2022-10-16T10:22:25;100681.84;;;19.53;42.05
64616;BME280;51027;42.162;24.754;2022-10-16T10:26:05;100692.63;;;19.52;40.01
64616;BME280;51027;42.162;24.754;2022-10-16T10:47:05;100673.63;;;20.83;40.17
64616;BME280;51027;42.162;24.754;2022-10-16T10:56:00;100660.19;;;20.29;40.51
64616;BME280;51027;42.162;24.754;2022-10-16T11:01:16;100648.19;;;19.65;41.43
64616;BME280;51027;42.162;24.754;2022-10-16T11:09:34;100659.63;;;18.93;42.38
64616;BME280;51027;42.162;24.754;2022-10-16T11:15:17;100652.91;;;19.46;41.70
64616;BME280;51027;42.162;24.754;2022-10-16T11:17:25;100625.25;;;19.61;41.82
64616;BME280;51027;42.162;24.754;2022-10-16T11:19:57;100636.44;;;19.82;41.96
64616;BME280;51027;42.162;24.754;2022-10-16T11:22:35;100649.94;;;19.50;42.22
64616;BME280;51027;42.162;24.754;2022-10-16T11:25:05;100645.78;;;19.61;41.33
64616;BME280;51027;42.162;24.754;2022-10-16T11:27:59;100640.06;;;19.95;41.23
64616;BME280;51027;42.162;24.754;2022-10-16T11:30:33;100618.97;;;19.76;40.72
64616;BME280;51027;42.162;24.754;2022-10-16T11:33:19;100636.53;;;19.80;40.87
64616;BME280;51027;42.162;24.754;2022-10-16T11:36:33;100633.88;;;19.95;40.42
64616;BME280;51027;42.162;24.754;2022-10-16T11:39:04;100628.34;;;19.83;40.77
64616;BME280;51027;42.162;24.754;2022-10-16T11:55:26;100630.09;;;20.11;39.25
64616;BME280;51027;42.162;24.754;2022-10-16T11:58:41;100634.50;;;20.27;39.48
64616;BME280;51027;42.162;24.754;2022-10-16T12:01:22;100625.59;;;20.26;39.58
64616;BME280;51027;42.162;24.754;2022-10-16T12:09:27;100635.63;;;20.23;38.67
64616;BME280;51027;42.162;24.754;2022-10-16T12:11:54;100629.94;;;20.14;39.80
64616;BME280;51027;42.162;24.754;2022-10-16T12:16:57;100638.78;;;20.29;39.07
64616;BME280;51027;42.162;24.754;2022-10-16T12:19:26;100630.31;;;20.08;38.97
64616;BME280;51027;42.162;24.754;2022-10-16T12:21:56;100634.38;;;20.28;39.38
64616;BME280;51027;42.162;24.754;2022-10-16T12:26:48;100635.63;;;20.23;39.67
64616;BME280;51027;42.162;24.754;2022-10-16T12:29:38;100633.66;;;20.53;39.88
64616;BME280;51027;42.162;24.754;2022-10-16T12:32:18;100631.09;;;20.52;38.95
64616;BME280;51027;42.162;24.754;2022-10-16T12:34:47;100625.47;;;20.56;38.94
64616;BME280;51027;42.162;24.754;2022-10-16T12:37:20;100625.31;;;20.45;38.99
64616;BME280;51027;42.162;24.754;2022-10-16T12:39:48;100629.44;;;20.63;38.56
64616;BME280;51027;42.162;24.754;2022-10-16T12:44:49;100633.06;;;20.62;38.85
64616;BME280;51027;42.162;24.754;2022-10-16T12:49:55;100629.28;;;20.79;38.54
64616;BME280;51027;42.162;24.754;2022-10-16T12:55:00;100636.28;;;20.94;39.30
64616;BME280;51027;42.162;24.754;2022-10-16T13:00:56;100643.69;;;21.04;38.70
64616;BME280;51027;42.162;24.754;2022-10-16T13:09:33;100644.56;;;21.69;37.78
64616;BME280;51027;42.162;24.754;2022-10-16T13:17:50;100639.59;;;24.36;32.39
64616;BME280;51027;42.162;24.754;2022-10-16T13:20:42;100637.25;;;23.18;33.13
64616;BME280;51027;42.162;24.754;2022-10-16T13:23:15;100640.72;;;21.61;35.66
64616;BME280;51027;42.162;24.754;2022-10-16T13:28:37;100647.91;;;21.08;37.10
64616;BME280;51027;42.162;24.754;2022-10-16T13:31:04;100645.63;;;21.02;37.80
64616;BME280;51027;42.162;24.754;2022-10-16T13:33:35;100644.16;;;21.10;37.91
64616;BME280;51027;42.162;24.754;2022-10-16T13:36:06;100641.47;;;21.10;38.65
64616;BME280;51027;42.162;24.754;2022-10-16T13:38:35;100648.28;;;20.89;37.64
64616;BME280;51027;42.162;24.754;2022-10-16T13:41:12;100642.09;;;21.41;38.14
64616;BME280;51027;42.162;24.754;2022-10-16T13:43:50;100646.94;;;23.78;34.85
64616;BME280;51027;42.162;24.754;2022-10-16T13:46:20;100641.94;;;23.84;33.46
64616;BME280;51027;42.162;24.754;2022-10-16T13:49:12;100635.81;;;24.05;33.38
64616;BME280;51027;42.162;24.754;2022-10-16T13:51:38;100639.66;;;22.38;35.43
64616;BME280;51027;42.162;24.754;2022-10-16T13:54:03;100641.38;;;21.77;36.48
64616;BME280;51027;42.162;24.754;2022-10-16T13:56:31;100642.28;;;21.76;36.15
64616;BME280;51027;42.162;24.754;2022-10-16T13:59:05;100638.53;;;21.91;35.31
64616;BME280;51027;42.162;24.754;2022-10-16T14:01:33;100607.16;;;23.59;34.40
64616;BME280;51027;42.162;24.754;2022-10-16T14:04:08;100648.94;;;23.06;34.17
64616;BME280;51027;42.162;24.754;2022-10-16T14:06:36;100647.06;;;22.71;34.94
64616;BME280;51027;42.162;24.754;2022-10-16T14:09:06;100640.94;;;23.74;33.15
64616;BME280;51027;42.162;24.754;2022-10-16T14:11:35;100650.44;;;23.10;34.61
64616;BME280;51027;42.162;24.754;2022-10-16T14:14:04;100654.75;;;22.76;35.24
64616;BME280;51027;42.162;24.754;2022-10-16T14:16:31;100650.53;;;22.60;34.13
64616;BME280;51027;42.162;24.754;2022-10-16T14:19:00;100649.00;;;22.32;34.99
64616;BME280;51027;42.162;24.754;2022-10-16T14:21:27;100655.16;;;22.22;35.68
64616;BME280;51027;42.162;24.754;2022-10-16T14:23:53;100655.31;;;21.56;36.07
64616;BME280;51027;42.162;24.754;2022-10-16T14:26:25;100654.75;;;21.12;37.82
64616;BME280;51027;42.162;24.754;2022-10-16T14:29:08;100653.06;;;20.84;37.76
64616;BME280;51027;42.162;24.754;2022-10-16T14:31:35;100647.25;;;20.50;38.14
64616;BME280;51027;42.162;24.754;2022-10-16T14:34:02;100653.34;;;20.66;38.60
64616;BME280;51027;42.162;24.754;2022-10-16T14:36:28;100654.16;;;20.54;38.29
64616;BME280;51027;42.162;24.754;2022-10-16T14:39:04;100655.97;;;20.54;38.59
64616;BME280;51027;42.162;24.754;2022-10-16T14:41:41;100638.78;;;20.29;37.79
64616;BME280;51027;42.162;24.754;2022-10-16T14:44:12;100626.69;;;20.65;37.88
64616;BME280;51027;42.162;24.754;2022-10-16T14:46:40;100660.09;;;20.72;37.87
64616;BME280;51027;42.162;24.754;2022-10-16T14:51:34;100656.44;;;19.46;40.04
64616;BME280;51027;42.162;24.754;2022-10-16T14:54:00;100654.97;;;19.41;40.58
64616;BME280;51027;42.162;24.754;2022-10-16T14:56:32;100658.22;;;19.32;41.74
64616;BME280;51027;42.162;24.754;2022-10-16T14:59:00;100640.22;;;19.05;40.67